HJFA4: James Fork nr Hackett 2S

                                SHEF ID:       HJFA4     James Fork nr Hackett 2S
STATION TYPE:

STAGE RIV-FLOW BAT-LOAD
ft cfs volt
Ccp-Rev Ccp-Rev Ccp-Rev
(America/Chicago)
04/28 00:00 6.41 404 12.46
04/28 01:00 6.33 393 12.43
04/28 02:00 6.23 380 12.40
04/28 03:00 6.14 368 12.37
04/28 04:00 6.05 354 12.37
04/28 05:00 5.96 341 12.36
04/28 06:00 5.89 330 12.35
04/28 07:00 5.82 320 12.34
04/28 08:00 5.76 312 12.38
04/28 09:00 5.71 305 13.12
04/28 10:00 5.67 299 13.01
04/28 11:00 5.63 294 13.15
04/28 12:00 5.59 288 12.78
04/28 13:00 5.59 288 12.86
04/28 14:00 5.58 287 13.19
04/28 15:00 5.60 290 12.96
04/28 16:00 5.64 295 12.84
04/28 17:00 5.74 309 12.63
04/28 18:00 6.01 348 12.60
04/28 19:00 6.68 443 12.84
04/28 20:00 7.92 655 12.65
04/28 21:00 8.20 712 12.55
04/28 22:00 8.00 671 12.53
04/28 23:00 7.96 663 12.52
Data processed at Wed 29Apr2026 04:35 GMT

NOTICE: If you are parsing this page

Please convert to using our Data API. Starting early 2026 we will be migrating to: https://water.usace.army.mil with modern pages rendered in JavaScript. When this migration completes you will no longer be able to scrape this page! CWMSDataAPI (CDA)

Timeseries IDs (TSIDs)

TSIDs used from left to right in the data table
HACK.Stage.Inst.1Hour.0.Ccp-Rev
HACK.Flow.Inst.1Hour.0.Ccp-Rev
HACK.Volt-Battery Load.Inst.1Hour.0.Ccp-Rev

                            

All information presented herein is the property of the government of the United States of America and may be revised or deleted at any time without prior notice. Dissemination of this information without the expressed written consent of the Public Affairs Office, Tulsa District U.S. Army Corps of Engineers is strictly prohibited. These data are gathered electronically and, as presented, have NOT undergone any form of quality control. These data are NOT guaranteed to be valid or correct.